Kennebunkport, ME

7:43 AM EDT on September 05, 2015 (GMT -0400)
APRSWXNET | | Change Station
CLOSE
Current Station
Personal Weather Station
Location: Kennebunkport, ME
Elevation: 98 ft
Nearby Weather Stations

Elev 98 ft 43.37 °N, 70.47 °W | Updated 26 minutes ago

Clear
Clear
50 °F
Feels Like 50 °F
N
0
Wind Variable Wind from SSE
Gusts 0.0 mph

Today
High -- | Low -- °F
--% Chance of Precip.
Yesterday
High -- | Low -- °F
Precip. -- in
6:09 AM 7:10 PM
Waning Gibbous, 49% visible
Pressure 30.31 in
Visibility 10.0 miles
Clouds Clear
Dew Point 50 °F
Humidity 99%
Rainfall in
Snow Depth Not available.
UV 1 out of 12
Pollen 7.60 out of 12
Air Quality Not available.
Flu Activity Not available.
METAR KSFM 051135Z AUTO 00000KT 10SM CLR 12/09 A3031 RMK AO1
Pressure 30.31 in
Visibility 10.0 miles
Clouds Clear
Dew Point 50 °F
Humidity 99%
Rainfall in
Snow Depth Not available.
UV 1 out of 12
Pollen 7.60 out of 12
Air Quality Not available.
Flu Activity Not available.
METAR KSFM 051135Z AUTO 00000KT 10SM CLR 12/09 A3031 RMK AO1

10-Day Weather Forecast

×

Almanac

Astronomy

Sep. 05, 2015 Rise Set
Actual Time
Civil Twilight
Nautical Twilight
Astronomical Twilight
Moon
Length of Visible Light
Length of Day
Tomorrow will be .
, % of the Moon is Illuminated

Today's Extremes

State Highs State Lows

Community

WunderPhotos

Upload Photos

1,852,449 photos uploaded!

WunderBlogs® & News

Nearby

Air Quality

  Air Quality AQ Index Pollutant
Not available.

Snow Depth

Station Depth Elevation

Earthquake Activity

City Distance Mag. Time & Date
Minimum magnitude displayed is 2.5.

Coastal Water Temperatures

Place Temperature

Stations

Nearby Weather Stations

Station Location Temp. Windchill Dew Point Humidity Wind Precip. Elev Updated Type